createdAt,value
2022-09-17T00:00:23.081Z,57.51
2022-09-17T00:03:28.368Z,58.65
2022-09-17T00:06:20.539Z,60.27
2022-09-17T00:09:12.689Z,65.38
2022-09-17T00:12:05.244Z,66.71
2022-09-17T00:14:57.265Z,64.65
2022-09-17T00:17:49.570Z,63.24
2022-09-17T00:20:43.197Z,62.07
2022-09-17T00:23:35.435Z,61.15
2022-09-17T00:26:29.059Z,60.42
2022-09-17T00:29:21.062Z,58.13
2022-09-17T00:32:13.123Z,57.48
2022-09-17T00:35:05.643Z,58.93
2022-09-17T00:37:57.694Z,63.61
2022-09-17T00:40:49.724Z,65.25
2022-09-17T00:43:44.608Z,63.29
2022-09-17T00:46:40.058Z,61.96
2022-09-17T00:49:29.625Z,61.19
2022-09-17T00:52:25.056Z,60.08
2022-09-17T00:55:22.533Z,57.20
2022-09-17T00:58:17.828Z,56.54
2022-09-17T01:01:09.893Z,57.75
2022-09-17T01:04:02.470Z,59.36
2022-09-17T01:07:07.238Z,64.13
2022-09-17T01:10:10.329Z,65.79
2022-09-17T01:13:14.757Z,64.13
2022-09-17T01:16:16.523Z,62.39
2022-09-17T01:19:27.231Z,61.18
2022-09-17T01:22:12.650Z,60.61
2022-09-17T01:25:19.044Z,59.92
2022-09-17T01:28:39.356Z,57.09
2022-09-17T01:31:41.789Z,56.92
2022-09-17T01:34:43.175Z,58.70
2022-09-17T01:37:39.673Z,63.54
2022-09-17T01:40:29.979Z,65.42
2022-09-17T01:43:25.822Z,63.45
2022-09-17T01:46:26.882Z,61.91
2022-09-17T01:49:21.502Z,60.92
2022-09-17T01:52:16.444Z,60.02
2022-09-17T01:55:12.448Z,57.59
2022-09-17T01:58:11.142Z,57.11
2022-09-17T02:01:06.624Z,58.55
2022-09-17T02:04:04.420Z,60.10
2022-09-17T02:06:52.918Z,65.25
2022-09-17T02:09:47.705Z,66.56
2022-09-17T02:12:44.839Z,64.73
2022-09-17T02:15:43.675Z,63.04
2022-09-17T02:18:41.497Z,62.19
2022-09-17T02:21:39.753Z,61.28
2022-09-17T02:24:36.809Z,60.85
2022-09-17T02:27:39.181Z,60.38
2022-09-17T02:30:32.259Z,60.19
2022-09-17T02:33:07.406Z,57.86
2022-09-17T02:35:50.439Z,56.94
2022-09-17T02:38:45.345Z,58.08
2022-09-17T02:41:48.031Z,59.53
2022-09-17T02:44:47.952Z,64.34
2022-09-17T02:47:53.331Z,65.50
2022-09-17T02:51:07.134Z,63.99
2022-09-17T02:53:48.603Z,62.33
2022-09-17T02:56:52.113Z,61.38
2022-09-17T02:59:54.655Z,60.57
2022-09-17T03:02:49.737Z,57.82
2022-09-17T03:05:42.405Z,57.15
2022-09-17T03:08:38.218Z,58.22
2022-09-17T03:11:20.637Z,59.77
2022-09-17T03:14:11.463Z,64.24
2022-09-17T03:17:03.591Z,66.04
2022-09-17T03:19:48.338Z,64.21
2022-09-17T03:22:40.396Z,62.95
2022-09-17T03:25:32.461Z,61.99
2022-09-17T03:28:26.007Z,60.92
2022-09-17T03:31:17.980Z,60.15
2022-09-17T03:34:10.206Z,57.61
2022-09-17T03:37:02.488Z,56.89
2022-09-17T03:39:54.543Z,58.14
2022-09-17T03:42:46.567Z,59.56
2022-09-17T03:45:38.825Z,64.12
2022-09-17T03:48:30.914Z,66.06
2022-09-17T03:51:23.104Z,64.40
2022-09-17T03:54:15.158Z,63.08
2022-09-17T03:57:07.325Z,61.99
2022-09-17T03:59:59.402Z,61.23
2022-09-17T04:02:51.390Z,60.69
2022-09-17T04:05:43.390Z,60.07
2022-09-17T04:08:36.738Z,57.68
2022-09-17T04:11:28.915Z,57.00
2022-09-17T04:14:20.918Z,58.40
2022-09-17T04:16:52.822Z,60.21
2022-09-17T04:19:44.815Z,64.80
2022-09-17T04:22:36.984Z,66.26
2022-09-17T04:25:29.112Z,64.48
2022-09-17T04:28:00.807Z,63.25
2022-09-17T04:30:52.553Z,62.63
2022-09-17T04:33:44.548Z,62.09
2022-09-17T04:36:35.329Z,61.82
2022-09-17T04:39:27.315Z,61.60
2022-09-17T04:42:19.480Z,61.21
2022-09-17T04:44:53.560Z,60.52
2022-09-17T04:47:45.676Z,57.76
2022-09-17T04:50:37.684Z,56.95
2022-09-17T04:53:29.809Z,57.92
2022-09-17T04:56:22.037Z,59.26
2022-09-17T04:59:14.170Z,62.71
2022-09-17T05:01:56.307Z,65.50
2022-09-17T05:04:48.490Z,64.66
2022-09-17T05:07:30.413Z,63.19
2022-09-17T05:10:18.625Z,62.55
2022-09-17T05:13:00.557Z,62.60
2022-09-17T05:15:52.810Z,62.32
2022-09-17T05:18:44.890Z,61.79
2022-09-17T05:21:36.808Z,60.30
2022-09-17T05:24:28.780Z,57.98
2022-09-17T05:27:20.800Z,57.17
2022-09-17T05:30:13.699Z,58.26
2022-09-17T05:32:50.440Z,59.80
2022-09-17T05:35:44.196Z,63.75
2022-09-17T05:38:36.118Z,65.70
2022-09-17T05:41:28.194Z,63.94
2022-09-17T05:44:20.738Z,62.41
2022-09-17T05:47:12.752Z,60.77
2022-09-17T05:50:03.159Z,57.75
2022-09-17T05:52:55.803Z,56.42
2022-09-17T05:55:47.956Z,57.47
2022-09-17T05:58:33.173Z,58.81
2022-09-17T06:01:25.679Z,59.92
2022-09-17T06:04:18.187Z,64.38
2022-09-17T06:07:10.427Z,66.37
2022-09-17T06:10:02.419Z,64.82
2022-09-17T06:12:59.721Z,63.02
2022-09-17T06:15:41.539Z,61.50
2022-09-17T06:18:33.974Z,60.55
2022-09-17T06:21:26.071Z,57.30
2022-09-17T06:24:18.134Z,56.53
2022-09-17T06:27:10.235Z,58.39
2022-09-17T06:30:05.152Z,59.25
2022-09-17T06:32:57.419Z,61.31
2022-09-17T06:35:40.726Z,64.42
2022-09-17T06:38:12.597Z,66.05
2022-09-17T06:40:44.493Z,64.23
2022-09-17T06:43:16.350Z,62.34
2022-09-17T06:46:09.484Z,60.43
2022-09-17T06:49:01.570Z,56.72
2022-09-17T06:51:54.227Z,55.57
2022-09-17T06:54:35.282Z,57.03
2022-09-17T06:57:27.575Z,58.90
2022-09-17T07:00:20.233Z,60.18
2022-09-17T07:03:06.535Z,62.44
2022-09-17T07:05:54.233Z,65.68
2022-09-17T07:08:47.199Z,64.05
2022-09-17T07:11:39.606Z,61.87
2022-09-17T07:14:14.568Z,60.47
2022-09-17T07:17:08.023Z,57.83
2022-09-17T07:20:00.268Z,56.68
2022-09-17T07:22:59.574Z,57.21
2022-09-17T07:25:42.639Z,60.33
2022-09-17T07:28:17.999Z,62.12
2022-09-17T07:31:16.162Z,65.01
2022-09-17T07:34:09.086Z,64.52
2022-09-17T07:37:01.075Z,61.87
2022-09-17T07:39:36.451Z,58.46
2022-09-17T07:42:28.737Z,57.60
2022-09-17T07:45:20.811Z,58.16
2022-09-17T07:47:52.653Z,59.65
2022-09-17T07:50:44.827Z,60.00
2022-09-17T07:53:17.146Z,61.30
2022-09-17T07:55:55.821Z,63.55
2022-09-17T07:58:40.608Z,64.25
2022-09-17T08:01:15.593Z,59.82
2022-09-17T08:04:08.327Z,57.62
2022-09-17T08:06:50.482Z,57.65
2022-09-17T08:09:31.592Z,57.88
2022-09-17T08:12:03.893Z,57.86
2022-09-17T08:14:41.155Z,59.38
2022-09-17T08:17:16.133Z,58.24
2022-09-17T08:19:48.008Z,58.56
2022-09-17T08:22:20.376Z,59.01
2022-09-17T08:24:52.314Z,59.26
2022-09-17T08:27:44.959Z,59.97
2022-09-17T08:30:29.783Z,59.73
2022-09-17T08:33:22.486Z,59.29
2022-09-17T08:36:03.675Z,58.96
2022-09-17T08:38:58.670Z,59.70
2022-09-17T08:42:02.996Z,60.11
2022-09-17T08:45:00.472Z,60.58
2022-09-17T08:47:39.148Z,60.00
2022-09-17T08:50:34.303Z,61.03
2022-09-17T08:53:51.183Z,60.02
2022-09-17T08:56:46.666Z,60.82
2022-09-17T08:59:45.596Z,59.86
2022-09-17T09:02:33.851Z,58.62
2022-09-17T09:05:33.303Z,58.36
2022-09-17T09:08:20.746Z,58.33
2022-09-17T09:11:14.961Z,58.14
2022-09-17T09:14:01.577Z,58.63
2022-09-17T09:16:40.815Z,56.97
2022-09-17T09:19:40.494Z,56.38
2022-09-17T09:22:25.881Z,55.23
2022-09-17T09:25:33.271Z,55.83
2022-09-17T09:28:39.617Z,55.44
2022-09-17T09:31:40.683Z,54.16
2022-09-17T09:34:38.365Z,55.25
2022-09-17T09:37:32.690Z,55.28
2022-09-17T09:40:31.611Z,55.95
2022-09-17T09:43:46.629Z,54.30
2022-09-17T09:47:13.515Z,54.27
2022-09-17T09:50:13.979Z,53.25
2022-09-17T09:53:20.662Z,52.78
2022-09-17T09:56:07.558Z,51.98
2022-09-17T09:58:59.800Z,52.38
2022-09-17T10:01:52.618Z,51.83
2022-09-17T10:04:32.480Z,50.82
2022-09-17T10:07:24.736Z,52.07
2022-09-17T10:10:17.123Z,52.03
2022-09-17T10:13:14.941Z,51.23
2022-09-17T10:15:49.647Z,50.48
2022-09-17T10:18:26.397Z,50.11
2022-09-17T10:21:02.457Z,51.03
2022-09-17T10:23:55.620Z,50.28
2022-09-17T10:26:34.050Z,50.71
2022-09-17T10:29:17.032Z,51.21
2022-09-17T10:32:15.354Z,51.09
2022-09-17T10:35:05.412Z,51.85
2022-09-17T10:37:51.037Z,52.12
2022-09-17T10:40:35.092Z,51.74
2022-09-17T10:43:26.772Z,51.19
2022-09-17T10:46:03.810Z,51.10
2022-09-17T10:48:58.402Z,51.73
2022-09-17T10:51:41.633Z,51.32
2022-09-17T10:54:53.787Z,50.16
2022-09-17T10:58:04.169Z,50.29
2022-09-17T11:01:03.349Z,50.83
2022-09-17T11:04:00.616Z,50.15
2022-09-17T11:07:24.240Z,50.75
2022-09-17T11:10:18.303Z,50.85
2022-09-17T11:13:20.307Z,50.29
2022-09-17T11:16:13.273Z,49.72
2022-09-17T11:18:47.091Z,49.87
2022-09-17T11:21:41.571Z,50.14
2022-09-17T11:24:48.922Z,49.77
2022-09-17T11:27:53.282Z,49.41
2022-09-17T11:30:43.063Z,49.49
2022-09-17T11:33:33.651Z,49.34
2022-09-17T11:36:33.180Z,49.28
2022-09-17T11:39:16.886Z,49.32
2022-09-17T11:42:14.726Z,49.34
2022-09-17T11:44:53.155Z,49.19
2022-09-17T11:47:38.883Z,49.67
2022-09-17T11:50:27.182Z,49.72
2022-09-17T11:53:23.682Z,49.56
2022-09-17T11:56:11.871Z,49.98
2022-09-17T11:58:44.625Z,50.23
2022-09-17T12:01:41.746Z,50.73
2022-09-17T12:04:41.848Z,50.11
2022-09-17T12:07:36.120Z,49.58
2022-09-17T12:10:46.236Z,49.55
2022-09-17T12:13:37.854Z,48.44
2022-09-17T12:16:35.157Z,48.81
2022-09-17T12:19:27.229Z,48.73
2022-09-17T12:22:24.309Z,48.49
2022-09-17T12:25:14.495Z,47.80
2022-09-17T12:28:06.241Z,47.87
2022-09-17T12:31:03.535Z,47.12
2022-09-17T12:33:47.462Z,47.99
2022-09-17T12:36:29.785Z,48.03
2022-09-17T12:39:31.638Z,48.14
2022-09-17T12:42:18.699Z,47.98
2022-09-17T12:45:15.601Z,47.97
2022-09-17T12:48:22.251Z,48.09
2022-09-17T12:51:04.714Z,48.22
2022-09-17T12:53:44.078Z,48.63
2022-09-17T12:56:32.228Z,48.92
2022-09-17T12:59:19.433Z,48.39
2022-09-17T13:01:57.082Z,48.55
2022-09-17T13:05:01.273Z,48.27
2022-09-17T13:08:05.515Z,48.51
2022-09-17T13:10:51.631Z,48.52
2022-09-17T13:13:38.132Z,48.44
2022-09-17T13:16:23.964Z,49.04
2022-09-17T13:19:18.239Z,49.37
2022-09-17T13:21:55.732Z,49.47
2022-09-17T13:24:32.776Z,49.58
2022-09-17T13:27:06.839Z,49.97
2022-09-17T13:30:03.084Z,49.62
2022-09-17T13:32:55.253Z,49.59
2022-09-17T13:35:51.177Z,49.76
2022-09-17T13:38:45.253Z,49.80
2022-09-17T13:41:40.042Z,49.40
2022-09-17T13:44:13.034Z,48.72
2022-09-17T13:46:45.435Z,49.23
2022-09-17T13:49:20.024Z,49.15
2022-09-17T13:51:55.507Z,48.91
2022-09-17T13:54:39.916Z,49.09
2022-09-17T13:57:16.835Z,49.69
2022-09-17T14:00:00.939Z,49.87
2022-09-17T14:02:38.587Z,49.38
2022-09-17T14:05:36.138Z,49.76
2022-09-17T14:08:31.127Z,49.62
2022-09-17T14:11:37.155Z,50.11
2022-09-17T14:14:49.713Z,49.99
2022-09-17T14:17:54.072Z,50.26
2022-09-17T14:20:28.305Z,50.04
2022-09-17T14:23:04.004Z,49.85
2022-09-17T14:25:43.654Z,49.79
2022-09-17T14:28:25.056Z,50.35
2022-09-17T14:30:59.398Z,49.94
2022-09-17T14:33:33.074Z,49.92
2022-09-17T14:36:12.834Z,50.55
2022-09-17T14:38:48.113Z,50.88
2022-09-17T14:41:26.336Z,50.85
2022-09-17T14:44:01.510Z,50.86
2022-09-17T14:46:37.946Z,49.98
2022-09-17T14:49:27.341Z,50.44
2022-09-17T14:52:00.035Z,50.33
2022-09-17T14:55:09.755Z,50.56
2022-09-17T14:57:41.866Z,51.05
2022-09-17T15:00:21.915Z,51.37
2022-09-17T15:02:56.280Z,51.43
2022-09-17T15:05:33.413Z,51.48
2022-09-17T15:08:14.449Z,52.01
2022-09-17T15:10:53.097Z,52.25
2022-09-17T15:13:29.468Z,52.22
2022-09-17T15:16:08.095Z,52.52
2022-09-17T15:18:44.272Z,53.20
2022-09-17T15:21:40.332Z,53.54
2022-09-17T15:24:22.553Z,53.55
2022-09-17T15:26:59.667Z,53.82
2022-09-17T15:29:35.194Z,54.24
2022-09-17T15:32:11.637Z,54.78
2022-09-17T15:34:44.067Z,55.09
2022-09-17T15:37:28.572Z,55.04
2022-09-17T15:40:00.717Z,54.98
2022-09-17T15:42:33.533Z,55.11
2022-09-17T15:45:21.206Z,55.59
2022-09-17T15:47:57.504Z,55.24
2022-09-17T15:50:30.780Z,55.58
2022-09-17T15:53:15.594Z,55.86
2022-09-17T15:55:59.895Z,56.25
2022-09-17T15:58:55.517Z,57.18
2022-09-17T16:01:55.797Z,57.38
2022-09-17T16:04:30.794Z,57.71
2022-09-17T16:07:21.016Z,58.37
2022-09-17T16:09:53.989Z,58.68
2022-09-17T16:12:28.873Z,58.58
2022-09-17T16:15:02.231Z,59.28
2022-09-17T16:17:44.913Z,59.71
2022-09-17T16:20:22.205Z,59.84
2022-09-17T16:22:55.110Z,60.21
2022-09-17T16:25:29.630Z,60.45
2022-09-17T16:28:05.283Z,60.71
2022-09-17T16:30:37.578Z,60.95
2022-09-17T16:33:11.668Z,61.40
2022-09-17T16:35:44.857Z,63.42
2022-09-17T16:38:17.133Z,66.41
2022-09-17T16:40:48.965Z,64.55
2022-09-17T16:43:21.167Z,61.97
2022-09-17T16:46:02.858Z,58.53
2022-09-17T16:48:35.594Z,56.00
2022-09-17T16:51:11.778Z,55.73
2022-09-17T16:53:43.848Z,56.14
2022-09-17T16:56:17.268Z,56.95
2022-09-17T16:58:49.493Z,57.84
2022-09-17T17:01:21.724Z,58.72
2022-09-17T17:03:55.867Z,59.35
2022-09-17T17:06:28.053Z,59.99
2022-09-17T17:09:01.169Z,60.87
2022-09-17T17:11:33.089Z,63.68
2022-09-17T17:14:06.336Z,66.31
2022-09-17T17:16:40.792Z,65.14
2022-09-17T17:19:12.871Z,63.15
2022-09-17T17:21:47.171Z,61.61
2022-09-17T17:24:19.275Z,58.52
2022-09-17T17:26:51.116Z,55.99
2022-09-17T17:29:22.880Z,56.31
2022-09-17T17:31:54.660Z,56.84
2022-09-17T17:34:26.517Z,57.65
2022-09-17T17:36:58.454Z,58.68
2022-09-17T17:39:30.300Z,59.42
2022-09-17T17:42:02.070Z,60.47
2022-09-17T17:44:33.926Z,64.11
2022-09-17T17:47:06.757Z,66.50
2022-09-17T17:49:38.470Z,64.63
2022-09-17T17:52:10.359Z,62.34
2022-09-17T17:54:42.099Z,58.92
2022-09-17T17:57:14.004Z,56.74
2022-09-17T17:59:45.725Z,56.76
2022-09-17T18:02:17.694Z,57.43
2022-09-17T18:04:49.638Z,58.36
2022-09-17T18:07:21.603Z,59.48
2022-09-17T18:09:53.400Z,60.11
2022-09-17T18:12:27.035Z,63.54
2022-09-17T18:14:58.950Z,66.37
2022-09-17T18:17:31.628Z,64.60
2022-09-17T18:20:04.900Z,62.23
2022-09-17T18:22:37.161Z,58.43
2022-09-17T18:25:10.241Z,56.42
2022-09-17T18:27:42.777Z,56.72
2022-09-17T18:30:15.841Z,57.57
2022-09-17T18:32:50.084Z,58.69
2022-09-17T18:35:23.543Z,59.59
2022-09-17T18:37:55.381Z,60.68
2022-09-17T18:40:27.515Z,64.33
2022-09-17T18:42:59.475Z,66.44
2022-09-17T18:45:32.151Z,64.97
2022-09-17T18:48:06.110Z,62.47
2022-09-17T18:50:38.148Z,58.99
2022-09-17T18:53:09.951Z,56.72
2022-09-17T18:55:46.856Z,56.97
2022-09-17T18:58:18.743Z,57.76
2022-09-17T19:00:50.558Z,58.83
2022-09-17T19:03:22.320Z,60.04
2022-09-17T19:05:54.285Z,63.37
2022-09-17T19:08:29.218Z,65.97
2022-09-17T19:11:03.787Z,64.25
2022-09-17T19:13:37.855Z,61.88
2022-09-17T19:16:11.890Z,58.67
2022-09-17T19:18:54.326Z,56.59
2022-09-17T19:21:26.652Z,57.23
2022-09-17T19:23:58.686Z,58.26
2022-09-17T19:26:30.597Z,59.23
2022-09-17T19:29:07.328Z,60.17
2022-09-17T19:31:39.383Z,63.54
2022-09-17T19:34:11.626Z,66.06
2022-09-17T19:36:52.433Z,64.97
2022-09-17T19:39:29.845Z,63.23
2022-09-17T19:42:01.659Z,61.65
2022-09-17T19:44:34.449Z,58.77
2022-09-17T19:47:06.530Z,56.69
2022-09-17T19:49:38.672Z,57.12
2022-09-17T19:52:13.094Z,58.18
2022-09-17T19:54:44.981Z,59.36
2022-09-17T19:57:16.851Z,60.61
2022-09-17T19:59:48.705Z,64.02
2022-09-17T20:02:20.767Z,66.67
2022-09-17T20:04:55.317Z,65.67
2022-09-17T20:07:28.816Z,64.10
2022-09-17T20:10:00.819Z,62.52
2022-09-17T20:12:32.647Z,61.25
2022-09-17T20:15:04.769Z,58.96
2022-09-17T20:17:36.951Z,57.03
2022-09-17T20:20:10.665Z,57.84
2022-09-17T20:22:42.400Z,59.37
2022-09-17T20:25:14.255Z,62.70
2022-09-17T20:27:46.308Z,65.29
2022-09-17T20:30:23.985Z,64.90
2022-09-17T20:32:57.166Z,63.68
2022-09-17T20:35:28.946Z,62.58
2022-09-17T20:39:06.718Z,61.82
2022-09-17T20:40:54.051Z,60.95
2022-09-17T20:43:25.958Z,60.51
2022-09-17T20:45:58.078Z,60.44
2022-09-17T20:48:30.517Z,58.16
2022-09-17T20:51:04.073Z,56.66
2022-09-17T20:53:39.722Z,57.50
2022-09-17T20:56:13.250Z,58.83
2022-09-17T20:58:50.198Z,62.59
2022-09-17T21:01:24.191Z,65.09
2022-09-17T21:04:00.613Z,64.47
2022-09-17T21:06:34.234Z,63.38
2022-09-17T21:09:10.376Z,62.18
2022-09-17T21:11:42.868Z,61.48
2022-09-17T21:14:15.890Z,60.94
2022-09-17T21:16:49.097Z,60.39
2022-09-17T21:19:23.144Z,58.46
2022-09-17T21:21:56.371Z,57.15
2022-09-17T21:24:28.283Z,57.94
2022-09-17T21:27:00.122Z,59.17
2022-09-17T21:29:31.990Z,63.29
2022-09-17T21:32:03.950Z,65.69
2022-09-17T21:34:35.780Z,64.31
2022-09-17T21:37:07.741Z,62.71
2022-09-17T21:39:42.702Z,61.85
2022-09-17T21:42:14.639Z,61.16
2022-09-17T21:44:46.488Z,60.39
2022-09-17T21:47:18.361Z,58.56
2022-09-17T21:49:50.370Z,57.26
2022-09-17T21:52:22.229Z,58.05
2022-09-17T21:54:56.433Z,59.18
2022-09-17T21:57:28.816Z,60.38
2022-09-17T22:00:00.834Z,63.97
2022-09-17T22:02:33.253Z,66.29
2022-09-17T22:05:05.654Z,64.84
2022-09-17T22:07:37.532Z,63.51
2022-09-17T22:10:14.341Z,62.75
2022-09-17T22:12:46.160Z,61.70
2022-09-17T22:15:18.227Z,60.94
2022-09-17T22:17:50.038Z,60.64
2022-09-17T22:20:21.975Z,60.49
2022-09-17T22:22:54.050Z,58.38
2022-09-17T22:25:25.873Z,57.14
2022-09-17T22:28:19.616Z,58.05
2022-09-17T22:30:49.524Z,59.04
2022-09-17T22:33:21.191Z,63.24
2022-09-17T22:35:52.934Z,66.03
2022-09-17T22:38:27.383Z,65.22
2022-09-17T22:41:03.261Z,64.00
2022-09-17T22:43:35.615Z,63.06
2022-09-17T22:46:16.353Z,62.08
2022-09-17T22:48:48.786Z,61.21
2022-09-17T22:51:20.773Z,60.65
2022-09-17T22:53:52.906Z,60.19
2022-09-17T22:56:29.041Z,60.21
2022-09-17T22:59:01.143Z,60.05
2022-09-17T23:01:36.364Z,59.97
2022-09-17T23:04:11.914Z,59.75
2022-09-17T23:06:46.704Z,58.00
2022-09-17T23:09:18.451Z,57.54
2022-09-17T23:11:50.310Z,58.48
2022-09-17T23:14:22.050Z,60.11
2022-09-17T23:16:53.956Z,64.34
2022-09-17T23:19:31.279Z,66.90
2022-09-17T23:22:03.034Z,66.12
2022-09-17T23:24:37.853Z,64.76
2022-09-17T23:27:09.753Z,63.89
2022-09-17T23:29:41.550Z,63.13
2022-09-17T23:32:15.523Z,62.46
2022-09-17T23:34:47.392Z,62.14
2022-09-17T23:37:22.531Z,62.14
2022-09-17T23:39:54.299Z,61.58
2022-09-17T23:42:26.182Z,61.46
2022-09-17T23:44:57.931Z,61.39
2022-09-17T23:47:29.838Z,60.97
2022-09-17T23:50:01.652Z,61.11
2022-09-17T23:52:33.589Z,61.02
2022-09-17T23:55:06.101Z,60.90
2022-09-17T23:57:37.826Z,60.70
